createdAt,value
2017-10-17T00:00:12.197Z,11.97
2017-10-17T00:02:39.721Z,10.47
2017-10-17T00:05:07.269Z,10.97
2017-10-17T00:07:35.046Z,10.43
2017-10-17T00:10:02.680Z,10.87
2017-10-17T00:12:30.228Z,10.30
2017-10-17T00:14:57.856Z,10.83
2017-10-17T00:17:25.495Z,11.67
2017-10-17T00:19:53.047Z,11.83
2017-10-17T00:22:23.633Z,10.80
2017-10-17T00:25:10.343Z,10.50
2017-10-17T00:27:38.548Z,11.53
2017-10-17T00:30:06.070Z,10.67
2017-10-17T00:32:39.218Z,11.20
2017-10-17T00:35:23.362Z,13.37
2017-10-17T00:37:51.173Z,12.47
2017-10-17T00:40:19.127Z,12.97
2017-10-17T00:42:46.707Z,12.90
2017-10-17T00:45:14.943Z,13.33
2017-10-17T00:47:43.308Z,13.73
2017-10-17T00:50:10.941Z,14.47
2017-10-17T00:52:39.504Z,12.77
2017-10-17T00:55:10.314Z,12.50
2017-10-17T00:57:39.111Z,12.70
2017-10-17T01:00:06.713Z,12.83
2017-10-17T01:02:34.351Z,12.70
2017-10-17T01:05:01.993Z,12.43
2017-10-17T01:07:30.424Z,12.23
2017-10-17T01:09:59.278Z,11.77
2017-10-17T01:12:27.513Z,11.53
2017-10-17T01:14:55.109Z,11.17
2017-10-17T01:17:24.506Z,11.07
2017-10-17T01:20:00.860Z,10.67
2017-10-17T01:22:28.800Z,10.93
2017-10-17T01:24:56.497Z,11.57
2017-10-17T01:27:24.275Z,10.30
2017-10-17T01:29:51.898Z,11.00
2017-10-17T01:32:19.517Z,12.03
2017-10-17T01:34:49.917Z,10.67
2017-10-17T01:37:18.546Z,10.83
2017-10-17T01:39:49.027Z,10.90
2017-10-17T01:42:17.417Z,11.30
2017-10-17T01:44:52.854Z,10.80
2017-10-17T01:47:20.500Z,10.57
2017-10-17T01:49:50.651Z,10.87
2017-10-17T01:52:22.914Z,11.77
2017-10-17T01:54:56.563Z,10.07
2017-10-17T01:57:25.667Z,11.23
2017-10-17T02:00:08.173Z,11.10
2017-10-17T02:02:40.696Z,9.90
2017-10-17T02:05:08.392Z,11.83
2017-10-17T02:07:35.929Z,11.33
2017-10-17T02:10:21.205Z,10.47
2017-10-17T02:12:49.683Z,10.03
2017-10-17T02:15:18.001Z,10.30
2017-10-17T02:17:54.749Z,11.43
2017-10-17T02:20:23.052Z,10.17
2017-10-17T02:22:51.328Z,10.17
2017-10-17T02:25:35.572Z,11.10
2017-10-17T02:28:06.047Z,11.03
2017-10-17T02:30:40.200Z,10.23
2017-10-17T02:33:08.192Z,10.13
2017-10-17T02:35:37.518Z,9.93
2017-10-17T02:38:08.013Z,10.90
2017-10-17T02:40:35.531Z,10.67
2017-10-17T02:46:18.207Z,11.00
2017-10-17T02:51:53.860Z,10.90
2017-10-17T02:54:21.475Z,10.60
2017-10-17T02:56:49.106Z,10.30
2017-10-17T02:59:16.670Z,11.80
2017-10-17T03:01:49.087Z,11.00
2017-10-17T03:04:23.310Z,11.63
2017-10-17T03:06:51.576Z,11.40
2017-10-17T03:09:19.218Z,11.47
2017-10-17T03:11:46.865Z,11.10
2017-10-17T03:14:15.713Z,11.93
2017-10-17T03:16:43.258Z,10.50
2017-10-17T03:19:13.768Z,11.70
2017-10-17T03:21:45.240Z,10.53
2017-10-17T03:24:14.583Z,11.00
2017-10-17T03:26:43.020Z,10.90
2017-10-17T03:29:10.560Z,11.00
2017-10-17T03:31:39.232Z,11.10
2017-10-17T03:34:14.289Z,12.00
2017-10-17T03:36:45.128Z,11.13
2017-10-17T03:39:13.266Z,10.60
2017-10-17T03:41:41.863Z,12.63
2017-10-17T03:47:31.358Z,25.33
2017-10-17T03:50:12.449Z,24.37
2017-10-17T03:52:44.746Z,15.20
2017-10-17T03:55:13.807Z,15.97
2017-10-17T03:57:46.179Z,22.27
2017-10-17T04:00:14.235Z,24.40
2017-10-17T04:02:42.805Z,24.70
2017-10-17T04:05:18.898Z,23.93
2017-10-17T04:07:47.331Z,25.37
2017-10-17T04:10:29.241Z,28.07
2017-10-17T04:13:00.591Z,28.97
2017-10-17T04:15:28.181Z,30.20
2017-10-17T04:18:01.642Z,32.67
2017-10-17T04:20:45.695Z,32.90
2017-10-17T04:23:29.721Z,23.90
2017-10-17T04:29:42.590Z,18.23
2017-10-17T04:32:10.624Z,18.70
2017-10-17T04:34:46.781Z,17.20
2017-10-17T04:37:24.532Z,14.10
2017-10-17T04:39:52.182Z,14.30
2017-10-17T04:42:43.362Z,13.73
2017-10-17T04:48:30.164Z,13.70
2017-10-17T04:51:04.319Z,12.93
2017-10-17T04:53:42.758Z,12.43
2017-10-17T04:56:25.186Z,12.93
2017-10-17T04:58:55.400Z,11.80
2017-10-17T05:01:23.336Z,12.67
2017-10-17T05:03:58.434Z,12.83
2017-10-17T05:06:25.984Z,14.00
2017-10-17T05:12:02.157Z,13.50
2017-10-17T05:14:44.347Z,12.90
2017-10-17T05:17:28.595Z,13.50
2017-10-17T05:20:01.051Z,12.30
2017-10-17T05:22:33.751Z,12.63
2017-10-17T05:28:44.307Z,13.30
2017-10-17T05:31:13.411Z,12.40
2017-10-17T05:33:45.334Z,12.63
2017-10-17T05:39:20.934Z,13.80
2017-10-17T05:41:48.483Z,12.43
2017-10-17T05:44:27.969Z,13.30
2017-10-17T05:46:55.563Z,12.60
2017-10-17T05:49:31.218Z,12.57
2017-10-17T05:51:58.780Z,12.60
2017-10-17T05:54:26.435Z,12.33
2017-10-17T05:56:54.509Z,12.70
2017-10-17T05:59:22.067Z,13.47
2017-10-17T06:01:49.658Z,13.13
2017-10-17T06:04:17.219Z,13.30
2017-10-17T06:06:44.784Z,11.80
2017-10-17T06:09:12.937Z,12.60
2017-10-17T06:11:40.496Z,12.10
2017-10-17T06:14:08.869Z,11.77
2017-10-17T06:16:37.392Z,12.37
2017-10-17T06:19:04.939Z,11.70
2017-10-17T06:21:32.606Z,12.10
2017-10-17T06:24:00.340Z,12.10
2017-10-17T06:26:27.804Z,11.90
2017-10-17T06:28:55.284Z,13.00
2017-10-17T06:31:22.890Z,12.27
2017-10-17T06:33:50.396Z,12.10
2017-10-17T06:36:18.027Z,12.73
2017-10-17T06:38:45.529Z,12.47
2017-10-17T06:41:13.040Z,12.70
2017-10-17T06:43:41.128Z,12.57
2017-10-17T06:46:08.607Z,12.20
2017-10-17T06:48:36.139Z,12.30
2017-10-17T06:51:03.637Z,12.33
2017-10-17T06:53:31.119Z,12.40
2017-10-17T06:55:58.612Z,13.07
2017-10-17T06:58:26.175Z,12.60
2017-10-17T07:00:53.687Z,12.60
2017-10-17T07:03:21.243Z,12.47
2017-10-17T07:05:48.761Z,13.53
2017-10-17T07:08:16.376Z,12.97
2017-10-17T07:13:24.878Z,12.53
2017-10-17T07:15:53.365Z,13.20
2017-10-17T08:42:18.544Z,11.30
2017-10-17T08:44:55.948Z,11.07
2017-10-17T09:56:25.138Z,10.27
2017-10-17T10:35:01.895Z,8.77
2017-10-17T10:37:30.192Z,8.73
2017-10-17T10:44:47.765Z,9.40
2017-10-17T10:48:01.964Z,9.63
2017-10-17T10:53:38.011Z,9.20
2017-10-17T10:56:07.213Z,9.20
2017-10-17T10:58:36.627Z,9.70
2017-10-17T11:01:16.324Z,9.07
2017-10-17T11:03:50.722Z,9.30
2017-10-17T11:06:19.602Z,9.50
2017-10-17T12:18:13.801Z,6.20
2017-10-17T12:20:46.958Z,6.23
2017-10-17T12:23:18.810Z,6.70
2017-10-17T12:35:07.114Z,5.90
2017-10-17T12:37:34.777Z,6.50
2017-10-17T12:40:43.811Z,6.23
2017-10-17T12:43:12.019Z,6.83
2017-10-17T12:51:45.335Z,6.07
2017-10-17T12:54:13.555Z,6.30
2017-10-17T13:04:29.191Z,6.23
2017-10-17T13:09:46.907Z,6.77
2017-10-17T13:12:16.257Z,6.20
2017-10-17T13:14:47.535Z,6.90
2017-10-17T13:20:15.498Z,5.87
2017-10-17T13:22:43.584Z,6.33
2017-10-17T13:25:22.980Z,6.77
2017-10-17T13:27:50.619Z,6.70
2017-10-17T13:30:29.915Z,6.57
2017-10-17T13:32:59.297Z,6.80
2017-10-17T13:35:29.970Z,6.77
2017-10-17T13:41:02.091Z,6.27
2017-10-17T13:43:29.820Z,6.67
2017-10-17T13:45:57.475Z,6.40
2017-10-17T13:48:25.194Z,5.60
2017-10-17T13:50:52.732Z,7.90
2017-10-17T13:53:21.789Z,6.30
2017-10-17T13:55:57.085Z,6.23
2017-10-17T13:58:28.171Z,7.10
2017-10-17T14:03:37.197Z,5.60
2017-10-17T14:06:04.805Z,6.00
2017-10-17T14:08:35.710Z,6.70
2017-10-17T14:11:05.913Z,6.10
2017-10-17T14:13:33.501Z,5.90
2017-10-17T14:16:01.487Z,5.70
2017-10-17T14:31:04.725Z,6.40
2017-10-17T14:33:32.324Z,6.13
2017-10-17T14:36:00.322Z,6.07
2017-10-17T14:38:27.979Z,7.27
2017-10-17T14:41:01.034Z,5.53
2017-10-17T14:46:32.615Z,6.37
2017-10-17T14:49:03.425Z,6.13
2017-10-17T14:57:13.136Z,6.30
2017-10-17T14:59:40.751Z,6.20
2017-10-17T15:02:08.662Z,5.57
2017-10-17T15:15:17.477Z,5.90
2017-10-17T15:17:45.151Z,6.70
2017-10-17T15:20:16.798Z,6.60
2017-10-17T15:36:26.980Z,9.07
2017-10-17T15:38:54.544Z,7.80
2017-10-17T15:41:22.530Z,8.83
2017-10-17T15:43:50.510Z,7.40
2017-10-17T15:46:18.083Z,8.27
2017-10-17T15:48:45.757Z,7.40
2017-10-17T15:51:13.316Z,7.70
2017-10-17T15:53:40.893Z,8.47
2017-10-17T15:56:08.452Z,7.87
2017-10-17T15:58:37.329Z,8.27
2017-10-17T16:01:07.649Z,11.60
2017-10-17T16:03:35.622Z,8.93
2017-10-17T16:06:03.327Z,8.67
2017-10-17T16:08:30.930Z,8.40
2017-10-17T16:10:58.530Z,9.00
2017-10-17T16:13:26.273Z,11.30
2017-10-17T16:15:55.065Z,9.50
2017-10-17T16:18:23.066Z,10.63
2017-10-17T16:20:53.520Z,9.70
2017-10-17T16:23:21.136Z,9.93
2017-10-17T16:25:48.757Z,9.20
2017-10-17T16:28:32.083Z,9.93
2017-10-17T16:34:42.323Z,10.90
2017-10-17T16:40:05.304Z,10.87
2017-10-17T16:42:35.502Z,12.90
2017-10-17T16:45:05.915Z,16.00
2017-10-17T16:47:42.813Z,23.50
2017-10-17T16:50:11.847Z,24.60
2017-10-17T16:52:48.580Z,23.80
2017-10-17T16:55:24.061Z,21.47
2017-10-17T16:57:54.275Z,26.50
2017-10-17T17:00:23.891Z,25.53
2017-10-17T17:03:02.055Z,26.57
2017-10-17T17:05:38.094Z,20.13
2017-10-17T17:08:07.168Z,17.60
2017-10-17T17:24:02.171Z,10.67
2017-10-17T17:26:37.957Z,10.67
2017-10-17T17:29:26.486Z,11.13
2017-10-17T17:34:51.020Z,9.70
2017-10-17T17:37:18.954Z,10.37
2017-10-17T17:43:19.881Z,10.40
2017-10-17T17:45:47.688Z,10.93
2017-10-17T17:48:18.184Z,11.70
2017-10-17T17:50:48.798Z,11.60
2017-10-17T17:53:20.994Z,10.70
2017-10-17T18:02:39.493Z,11.70
2017-10-17T18:09:13.617Z,12.13
2017-10-17T18:11:42.317Z,12.90
2017-10-17T18:14:13.508Z,12.73
2017-10-17T18:16:42.671Z,14.07
2017-10-17T18:19:11.365Z,12.27
2017-10-17T18:21:39.308Z,13.80
2017-10-17T18:24:07.602Z,12.50
2017-10-17T18:26:41.559Z,13.23
2017-10-17T18:29:09.954Z,12.57
2017-10-17T18:31:37.891Z,12.50
2017-10-17T18:34:22.030Z,14.53
2017-10-17T18:36:50.170Z,14.37
2017-10-17T18:39:18.182Z,14.87
2017-10-17T18:41:46.880Z,17.93
2017-10-17T18:44:29.279Z,17.13
2017-10-17T18:46:58.216Z,14.17
2017-10-17T18:52:05.878Z,13.20
2017-10-17T18:54:35.084Z,12.90
2017-10-17T18:57:04.804Z,11.50
2017-10-17T19:03:10.297Z,13.67
2017-10-17T19:09:11.014Z,12.87
2017-10-17T19:14:37.284Z,12.13
2017-10-17T19:17:07.560Z,14.13
2017-10-17T19:19:35.857Z,14.83
2017-10-17T19:22:09.276Z,13.60
2017-10-17T19:24:39.300Z,14.33
2017-10-17T19:27:10.275Z,12.40
2017-10-17T19:29:38.189Z,12.77
2017-10-17T19:32:07.885Z,13.33
2017-10-17T19:34:36.122Z,14.43
2017-10-17T19:42:20.616Z,13.27
2017-10-17T19:44:48.480Z,14.07
2017-10-17T19:47:20.778Z,15.40
2017-10-17T19:49:49.742Z,15.40
2017-10-17T19:52:18.140Z,15.33
2017-10-17T19:54:45.786Z,15.63
2017-10-17T19:57:16.775Z,15.70
2017-10-17T19:59:45.832Z,15.63
2017-10-17T20:02:13.588Z,15.17
2017-10-17T20:04:46.797Z,14.53
2017-10-17T20:07:14.946Z,13.80
2017-10-17T20:09:48.221Z,14.40
2017-10-17T20:12:17.455Z,14.67
2017-10-17T20:14:46.700Z,13.53
2017-10-17T20:17:14.372Z,12.60
2017-10-17T20:22:36.535Z,13.60
2017-10-17T20:27:39.741Z,13.17
2017-10-17T20:30:07.623Z,14.17
2017-10-17T20:32:36.306Z,13.53
2017-10-17T20:35:04.138Z,14.23
2017-10-17T20:37:31.770Z,13.83
2017-10-17T20:39:59.508Z,13.87
2017-10-17T20:42:27.309Z,14.10
2017-10-17T20:45:05.379Z,14.33
2017-10-17T20:52:33.475Z,14.97
2017-10-17T20:55:01.428Z,13.70
2017-10-17T20:57:34.606Z,14.07
2017-10-17T21:00:04.123Z,14.30
2017-10-17T21:02:39.060Z,13.93
2017-10-17T21:07:46.435Z,14.30
2017-10-17T21:10:27.351Z,14.03
2017-10-17T21:20:48.019Z,13.97
2017-10-17T21:23:16.916Z,13.17
2017-10-17T21:29:00.069Z,13.60
2017-10-17T21:31:27.766Z,14.00
2017-10-17T21:36:33.240Z,14.33
2017-10-17T21:39:01.259Z,14.63
2017-10-17T21:41:29.200Z,14.10
2017-10-17T21:44:00.895Z,13.50
2017-10-17T21:46:30.872Z,12.40
2017-10-17T21:48:59.175Z,14.07
2017-10-17T21:51:29.874Z,14.73
2017-10-17T21:56:55.843Z,14.43
2017-10-17T21:59:24.445Z,13.33
2017-10-17T22:02:07.412Z,13.40
2017-10-17T22:04:50.629Z,12.90
2017-10-17T22:07:20.047Z,14.60
2017-10-17T22:10:05.447Z,13.50
2017-10-17T22:15:43.097Z,12.30
2017-10-17T22:21:16.131Z,11.70
2017-10-17T22:26:43.065Z,11.80
2017-10-17T22:29:13.281Z,13.00
2017-10-17T22:31:54.979Z,12.40
2017-10-17T23:47:17.433Z,10.67
2017-10-17T23:49:45.190Z,11.30
2017-10-17T23:58:15.388Z,11.40
